La Salle/Peru, Illinois
Current Conditions -  °F | °C
As of 6:35 AM on Monday 20 Oct 2014 (Local Time) from KVYS Reporting Station
Clear Clear  
Wind Chill: 44°   Ceiling: Unl
Heat Index: 48°   Visibility: 10mi
Dew Point: 45°   Wind: 10mph
Humidity: 87%   Direction: 260°W
Pressure: 29.85"   Gusts: NA
Location:  41.45°N, 89.1°W
Report Text: KVYS 201135Z AUTO 26009KT 10SM CLR 09/07 A2985 RMK AO2 T00910071
Loading
Personal Weather Stations






























Interactive Weather Map
Tropical Storm Tracking
New forecast layout! Learn more

10-Day Weather Forecast

Advertisements
Track Severe Weather on mobile